createdAt,value
2023-08-02T01:07:52.099Z,20.66
2023-08-02T01:14:34.397Z,20.85
2023-08-02T01:20:37.063Z,21.03
2023-08-02T01:29:21.233Z,20.46
2023-08-02T01:35:11.227Z,19.19
2023-08-02T01:41:01.631Z,19.91
2023-08-02T01:46:44.089Z,20.27
2023-08-02T01:49:23.724Z,20.37
2023-08-02T01:52:04.433Z,20.45
2023-08-02T01:54:51.267Z,20.51
2023-08-02T01:57:50.962Z,20.59
2023-08-02T02:00:29.984Z,20.67
2023-08-02T02:06:02.698Z,20.72
2023-08-02T02:08:44.924Z,20.77
2023-08-02T02:14:07.267Z,20.12
2023-08-02T02:16:49.276Z,19.19
2023-08-02T02:19:30.566Z,18.78
2023-08-02T02:22:24.552Z,19.21
2023-08-02T02:25:05.522Z,19.60
2023-08-02T02:27:53.556Z,19.86
2023-08-02T02:30:47.140Z,20.03
2023-08-02T02:33:47.601Z,20.13
2023-08-02T02:42:19.238Z,20.44
2023-08-02T02:45:05.304Z,20.45
2023-08-02T02:50:32.406Z,20.27
2023-08-02T02:53:12.929Z,19.34
2023-08-02T02:55:51.270Z,18.69
2023-08-02T02:58:24.835Z,18.94
2023-08-02T03:01:01.244Z,19.28
2023-08-02T03:03:39.240Z,19.49
2023-08-02T03:06:17.383Z,19.66
2023-08-02T03:08:54.445Z,19.75
2023-08-02T03:11:25.685Z,19.84
2023-08-02T03:13:55.787Z,19.92
2023-08-02T03:16:27.911Z,20.01
2023-08-02T03:18:58.348Z,20.07
2023-08-02T03:21:38.022Z,20.09
2023-08-02T03:24:23.790Z,20.10
2023-08-02T03:26:56.312Z,20.10
2023-08-02T03:29:29.840Z,20.14
2023-08-02T03:32:16.184Z,20.18
2023-08-02T03:34:47.259Z,20.23
2023-08-02T03:37:26.090Z,20.31
2023-08-02T03:39:57.293Z,20.35
2023-08-02T03:42:31.799Z,20.43
2023-08-02T03:45:18.295Z,20.44
2023-08-02T03:47:52.618Z,20.45
2023-08-02T03:50:44.582Z,20.44
2023-08-02T03:53:28.474Z,20.43
2023-08-02T03:56:01.874Z,20.44
2023-08-02T03:58:46.726Z,19.78
2023-08-02T04:01:27.909Z,18.95
2023-08-02T04:04:15.822Z,19.07
2023-08-02T04:06:55.046Z,19.48
2023-08-02T04:09:41.095Z,19.75
2023-08-02T04:12:38.896Z,19.93
2023-08-02T04:15:37.686Z,20.07
2023-08-02T04:21:27.334Z,20.41
2023-08-02T04:24:05.801Z,20.54
2023-08-02T04:26:54.178Z,20.62
2023-08-02T04:29:46.306Z,20.69
2023-08-02T04:32:41.297Z,20.74
2023-08-02T04:42:16.465Z,19.16
2023-08-02T05:01:23.201Z,20.84
2023-08-02T05:07:30.182Z,21.22
2023-08-02T05:16:52.793Z,20.27
2023-08-02T05:20:12.165Z,20.78
2023-08-02T05:25:51.012Z,21.46
2023-08-02T05:34:47.325Z,20.84
2023-08-02T05:37:45.918Z,21.36
2023-08-02T06:19:16.236Z,20.86
2023-08-02T06:47:11.986Z,21.51
2023-08-02T06:52:53.708Z,20.61
2023-08-02T06:55:46.930Z,21.29
2023-08-02T06:59:26.436Z,21.91
2023-08-02T07:02:13.806Z,21.89
2023-08-02T07:04:47.706Z,21.32
2023-08-02T07:07:15.677Z,20.97
2023-08-02T07:10:09.827Z,21.23
2023-08-02T07:12:38.491Z,21.95
2023-08-02T07:15:07.495Z,22.24
2023-08-02T07:17:34.744Z,21.83
2023-08-02T07:20:02.643Z,21.43
2023-08-02T07:22:30.517Z,21.19
2023-08-02T07:24:58.524Z,21.61
2023-08-02T07:27:26.440Z,22.33
2023-08-02T07:29:53.868Z,22.59
2023-08-02T07:32:21.154Z,22.19
2023-08-02T07:34:48.466Z,21.74
2023-08-02T07:37:15.944Z,21.39
2023-08-02T07:39:43.727Z,21.15
2023-08-02T07:42:20.073Z,21.21
2023-08-02T07:45:12.031Z,21.99
2023-08-02T07:47:39.608Z,22.26
2023-08-02T07:50:09.881Z,21.92
2023-08-02T07:52:47.194Z,21.63
2023-08-02T07:55:21.480Z,21.38
2023-08-02T07:57:48.680Z,21.23
2023-08-02T08:00:16.273Z,21.10
2023-08-02T08:02:43.757Z,21.12
2023-08-02T08:05:15.739Z,21.73
2023-08-02T08:07:57.832Z,22.31
2023-08-02T08:10:41.870Z,22.09
2023-08-02T08:13:10.013Z,21.77
2023-08-02T08:15:37.775Z,21.56
2023-08-02T08:18:05.055Z,21.44
2023-08-02T08:20:32.278Z,21.38
2023-08-02T08:22:59.893Z,21.29
2023-08-02T08:25:27.734Z,21.19
2023-08-02T08:27:55.486Z,21.14
2023-08-02T08:30:41.905Z,21.37
2023-08-02T08:33:30.999Z,22.23
2023-08-02T08:35:58.727Z,22.48
2023-08-02T08:38:26.567Z,22.25
2023-08-02T08:40:55.078Z,22.05
2023-08-02T08:43:27.762Z,21.94
2023-08-02T08:45:56.518Z,21.86
2023-08-02T08:48:26.446Z,21.72
2023-08-02T08:50:56.298Z,21.63
2023-08-02T08:53:32.425Z,21.66
2023-08-02T08:56:01.910Z,21.69
2023-08-02T08:58:30.321Z,21.74
2023-08-02T09:00:59.150Z,21.80
2023-08-02T09:03:27.086Z,21.88
2023-08-02T09:05:59.102Z,22.02
2023-08-02T09:08:27.949Z,22.18
2023-08-02T09:10:56.056Z,22.32
2023-08-02T09:13:28.181Z,22.40
2023-08-02T09:16:04.535Z,22.43
2023-08-02T09:18:36.934Z,22.44
2023-08-02T09:21:05.373Z,22.53
2023-08-02T09:23:32.825Z,22.60
2023-08-02T09:26:20.344Z,22.61
2023-08-02T09:29:06.010Z,22.66
2023-08-02T09:31:36.739Z,22.75
2023-08-02T09:34:04.953Z,22.83
2023-08-02T09:36:36.684Z,22.90
2023-08-02T09:39:15.278Z,22.92
2023-08-02T09:44:22.051Z,22.89
2023-08-02T09:46:50.294Z,22.87
2023-08-02T09:49:19.774Z,22.87
2023-08-02T09:51:47.420Z,22.84
2023-08-02T09:54:15.892Z,22.83
2023-08-02T09:56:43.622Z,22.95
2023-08-02T09:59:11.044Z,23.07
2023-08-02T10:01:40.728Z,23.18
2023-08-02T10:04:16.120Z,23.38
2023-08-02T10:06:47.804Z,23.62
2023-08-02T10:09:20.491Z,23.73
2023-08-02T10:11:58.651Z,23.72
2023-08-02T10:14:27.442Z,23.70
2023-08-02T10:16:57.171Z,23.68
2023-08-02T10:19:25.912Z,23.61
2023-08-02T10:21:58.163Z,23.48
2023-08-02T10:24:27.949Z,23.35
2023-08-02T10:26:58.001Z,23.32
2023-08-02T10:29:28.158Z,23.40
2023-08-02T10:31:57.320Z,23.59
2023-08-02T10:34:57.543Z,23.75
2023-08-02T10:37:55.429Z,23.92
2023-08-02T10:40:26.326Z,24.08
2023-08-02T10:43:07.409Z,24.12
2023-08-02T10:45:36.037Z,24.21
2023-08-02T10:48:24.837Z,24.36
2023-08-02T10:50:53.311Z,24.45
2023-08-02T10:53:22.138Z,24.45
2023-08-02T10:56:03.787Z,24.48
2023-08-02T10:58:57.688Z,24.59
2023-08-02T11:01:25.044Z,24.64
2023-08-02T11:03:54.149Z,24.62
2023-08-02T11:06:25.963Z,24.63
2023-08-02T11:08:54.471Z,24.71
2023-08-02T11:11:34.125Z,24.81
2023-08-02T11:14:02.638Z,24.96
2023-08-02T11:19:02.731Z,25.15
2023-08-02T11:21:30.582Z,25.07
2023-08-02T11:24:02.092Z,24.99
2023-08-02T11:26:56.001Z,24.94
2023-08-02T11:29:24.194Z,24.92
2023-08-02T11:34:25.706Z,24.96
2023-08-02T11:36:54.294Z,25.04
2023-08-02T11:39:22.436Z,25.05
2023-08-02T11:42:05.809Z,25.09
2023-08-02T11:44:39.002Z,25.13
2023-08-02T11:47:07.613Z,25.29
2023-08-02T11:49:58.619Z,25.51
2023-08-02T11:52:29.482Z,25.70
2023-08-02T11:54:57.803Z,25.78
2023-08-02T11:57:27.758Z,26.01
2023-08-02T12:00:01.035Z,26.28
2023-08-02T12:02:31.088Z,26.39
2023-08-02T12:05:05.879Z,26.49
2023-08-02T12:07:36.125Z,26.65
2023-08-02T12:10:08.691Z,26.94
2023-08-02T12:12:36.685Z,27.32
2023-08-02T12:15:12.907Z,27.63
2023-08-02T12:17:41.286Z,27.96
2023-08-02T12:20:09.506Z,28.18
2023-08-02T12:23:03.861Z,28.25
2023-08-02T12:25:47.754Z,28.16
2023-08-02T12:28:16.435Z,28.25
2023-08-02T12:31:04.230Z,28.49
2023-08-02T12:33:33.236Z,28.56
2023-08-02T12:36:01.428Z,28.41
2023-08-02T12:38:30.397Z,28.59
2023-08-02T12:40:59.739Z,28.85
2023-08-02T12:43:28.190Z,28.96
2023-08-02T12:45:56.562Z,28.86
2023-08-02T12:48:24.686Z,28.90
2023-08-02T12:50:55.793Z,28.85
2023-08-02T12:53:24.844Z,28.78
2023-08-02T12:55:54.560Z,28.76
2023-08-02T12:58:22.897Z,29.04
2023-08-02T13:00:53.719Z,29.38
2023-08-02T13:03:22.078Z,29.67
2023-08-02T13:05:50.574Z,29.93
2023-08-02T13:08:19.405Z,30.24
2023-08-02T13:10:50.464Z,30.47
2023-08-02T13:13:19.906Z,30.65
2023-08-02T13:15:48.527Z,30.95
2023-08-02T13:18:16.588Z,31.05
2023-08-02T13:20:50.844Z,31.36
2023-08-02T13:23:19.725Z,31.70
2023-08-02T13:25:51.533Z,31.98
2023-08-02T13:28:20.417Z,32.32
2023-08-02T13:30:49.026Z,32.69
2023-08-02T13:33:21.164Z,32.73
2023-08-02T13:35:50.316Z,32.64
2023-08-02T13:38:21.231Z,32.76
2023-08-02T13:40:52.225Z,32.68
2023-08-02T13:43:22.215Z,32.40
2023-08-02T13:45:51.319Z,32.02
2023-08-02T13:48:20.449Z,31.55
2023-08-02T13:50:49.986Z,31.17
2023-08-02T13:53:22.973Z,30.89
2023-08-02T13:55:53.430Z,30.65
2023-08-02T13:58:25.396Z,30.37
2023-08-02T14:00:54.869Z,30.01
2023-08-02T14:03:23.444Z,29.69
2023-08-02T14:05:52.084Z,29.37
2023-08-02T14:08:19.863Z,29.10
2023-08-02T14:10:47.888Z,29.07
2023-08-02T14:13:16.183Z,29.26
2023-08-02T14:15:44.308Z,29.47
2023-08-02T14:18:11.535Z,29.72
2023-08-02T14:20:39.657Z,30.10
2023-08-02T14:23:07.908Z,30.62
2023-08-02T14:25:35.624Z,31.15
2023-08-02T14:28:02.957Z,31.28
2023-08-02T14:30:31.793Z,31.39
2023-08-02T14:32:59.664Z,31.90
2023-08-02T14:35:28.506Z,32.37
2023-08-02T14:37:58.356Z,32.27
2023-08-02T14:40:26.565Z,31.94
2023-08-02T14:42:54.691Z,31.56
2023-08-02T14:45:22.569Z,31.24
2023-08-02T14:47:50.852Z,30.97
2023-08-02T14:50:19.109Z,30.57
2023-08-02T14:52:47.470Z,30.15
2023-08-02T14:55:16.070Z,29.77
2023-08-02T14:57:44.228Z,29.42
2023-08-02T15:00:12.938Z,29.07
2023-08-02T15:02:41.119Z,28.78
2023-08-02T15:05:10.118Z,28.60
2023-08-02T15:07:38.128Z,28.65
2023-08-02T15:10:10.724Z,28.83
2023-08-02T15:12:39.136Z,28.84
2023-08-02T15:15:13.000Z,28.70
2023-08-02T15:17:45.040Z,28.49
2023-08-02T15:20:13.728Z,28.27
2023-08-02T15:22:48.748Z,28.06
2023-08-02T15:25:20.351Z,27.81
2023-08-02T15:27:48.909Z,27.58
2023-08-02T15:30:18.087Z,27.43
2023-08-02T15:32:51.665Z,27.36
2023-08-02T15:35:20.528Z,27.53
2023-08-02T15:37:49.934Z,28.04
2023-08-02T15:40:19.169Z,28.33
2023-08-02T15:42:52.680Z,28.31
2023-08-02T15:45:23.506Z,28.16
2023-08-02T15:47:53.384Z,28.02
2023-08-02T15:50:22.355Z,27.91
2023-08-02T15:52:51.523Z,27.82
2023-08-02T15:55:21.552Z,27.75
2023-08-02T15:57:50.664Z,27.70
2023-08-02T16:00:21.846Z,27.66
2023-08-02T16:02:50.228Z,27.58
2023-08-02T16:05:20.243Z,27.49
2023-08-02T16:07:48.239Z,27.37
2023-08-02T16:10:16.530Z,27.24
2023-08-02T16:12:45.474Z,27.11
2023-08-02T16:15:13.202Z,26.94
2023-08-02T16:17:40.541Z,26.74
2023-08-02T16:20:09.857Z,26.51
2023-08-02T16:22:37.699Z,26.28
2023-08-02T16:25:07.459Z,26.03
2023-08-02T16:27:35.582Z,25.79
2023-08-02T16:30:04.460Z,25.58
2023-08-02T16:32:32.556Z,25.37
2023-08-02T16:35:00.453Z,25.19
2023-08-02T16:37:28.642Z,25.02
2023-08-02T16:39:56.375Z,24.84
2023-08-02T16:42:24.212Z,24.70
2023-08-02T16:44:51.963Z,24.57
2023-08-02T16:47:20.256Z,24.45
2023-08-02T16:49:49.051Z,24.34
2023-08-02T16:52:17.207Z,24.24
2023-08-02T16:54:46.240Z,24.15
2023-08-02T16:57:14.206Z,24.07
2023-08-02T16:59:42.144Z,24.00
2023-08-02T17:02:09.903Z,23.93
2023-08-02T17:04:37.602Z,23.86
2023-08-02T17:07:06.452Z,23.80
2023-08-02T17:09:37.159Z,23.73
2023-08-02T17:12:06.140Z,23.67
2023-08-02T17:14:34.095Z,23.61
2023-08-02T17:17:02.328Z,23.55
2023-08-02T17:19:30.083Z,23.50
2023-08-02T17:21:58.771Z,23.45
2023-08-02T17:24:26.448Z,23.40
2023-08-02T17:26:54.014Z,23.36
2023-08-02T17:29:22.327Z,23.31
2023-08-02T17:31:50.026Z,23.28
2023-08-02T17:34:17.795Z,23.25
2023-08-02T17:36:45.490Z,23.22
2023-08-02T17:39:14.285Z,23.19
2023-08-02T17:41:42.668Z,23.16
2023-08-02T17:44:10.182Z,23.13
2023-08-02T17:46:37.990Z,23.09
2023-08-02T17:49:05.851Z,23.05
2023-08-02T17:51:35.652Z,23.02
2023-08-02T17:54:03.020Z,22.98
2023-08-02T17:56:30.688Z,22.94
2023-08-02T17:58:58.342Z,22.87
2023-08-02T18:01:27.326Z,22.69
2023-08-02T18:03:54.735Z,22.42
2023-08-02T18:06:24.932Z,22.14
2023-08-02T18:08:52.243Z,21.87
2023-08-02T18:11:22.667Z,21.62
2023-08-02T18:13:50.136Z,21.37
2023-08-02T18:16:17.501Z,21.15
2023-08-02T18:18:45.790Z,20.90
2023-08-02T18:21:13.018Z,20.64
2023-08-02T18:23:41.414Z,20.40
2023-08-02T18:26:18.457Z,20.39
2023-08-02T18:28:48.209Z,21.06
2023-08-02T18:31:15.496Z,21.64
2023-08-02T18:33:45.916Z,21.50
2023-08-02T18:36:15.775Z,20.99
2023-08-02T18:38:54.163Z,20.89
2023-08-02T18:41:24.317Z,21.49
2023-08-02T18:43:52.757Z,22.06
2023-08-02T18:46:21.605Z,21.91
2023-08-02T18:48:49.170Z,21.38
2023-08-02T18:51:17.565Z,20.95
2023-08-02T18:53:49.306Z,20.63
2023-08-02T18:56:18.106Z,20.39
2023-08-02T18:58:47.887Z,20.18
2023-08-02T19:01:15.294Z,20.01
2023-08-02T19:03:42.986Z,19.85
2023-08-02T19:06:10.322Z,19.92
2023-08-02T19:08:43.049Z,20.63
2023-08-02T19:11:21.162Z,21.35
2023-08-02T19:13:49.769Z,21.37
2023-08-02T19:16:17.446Z,20.96
2023-08-02T19:18:44.837Z,20.61
2023-08-02T19:21:14.735Z,20.36
2023-08-02T19:23:47.045Z,20.17
2023-08-02T19:26:21.441Z,20.01
2023-08-02T19:28:52.336Z,20.15
2023-08-02T19:31:21.172Z,20.93
2023-08-02T19:33:49.566Z,21.60
2023-08-02T19:36:19.699Z,21.54
2023-08-02T19:38:49.419Z,21.11
2023-08-02T19:41:28.352Z,20.77
2023-08-02T19:43:58.818Z,20.51
2023-08-02T19:46:28.334Z,20.59
2023-08-02T19:48:57.823Z,21.30
2023-08-02T19:51:27.566Z,21.91
2023-08-02T19:53:55.554Z,21.77
2023-08-02T19:56:23.141Z,21.32
2023-08-02T19:59:00.255Z,20.97
2023-08-02T20:01:30.066Z,20.72
2023-08-02T20:04:02.123Z,21.10
2023-08-02T20:06:32.845Z,21.84
2023-08-02T20:09:01.640Z,22.39
2023-08-02T20:11:29.005Z,22.21
2023-08-02T20:13:57.361Z,21.70
2023-08-02T20:16:27.011Z,21.31
2023-08-02T20:18:56.596Z,21.20
2023-08-02T20:21:24.381Z,21.80
2023-08-02T20:24:02.942Z,22.38
2023-08-02T20:26:30.942Z,22.22
2023-08-02T20:28:59.495Z,21.71
2023-08-02T20:31:30.945Z,21.33
2023-08-02T20:33:58.423Z,21.12
2023-08-02T20:36:26.252Z,21.64
2023-08-02T20:38:55.771Z,22.28
2023-08-02T20:41:28.283Z,22.28
2023-08-02T20:43:57.709Z,21.77
2023-08-02T20:46:27.257Z,21.37
2023-08-02T20:48:56.846Z,21.07
2023-08-02T20:51:24.555Z,21.00
2023-08-02T20:53:52.428Z,21.61
2023-08-02T20:56:24.232Z,22.28
2023-08-02T20:58:51.646Z,22.57
2023-08-02T21:01:19.520Z,22.13
2023-08-02T21:03:47.792Z,21.67
2023-08-02T21:06:16.445Z,21.34
2023-08-02T21:08:46.458Z,21.09
2023-08-02T21:11:13.956Z,21.00
2023-08-02T21:13:43.536Z,21.58
2023-08-02T21:16:11.918Z,22.26
2023-08-02T21:18:43.678Z,22.26
2023-08-02T21:21:13.452Z,21.82
2023-08-02T21:23:42.214Z,21.46
2023-08-02T21:26:22.865Z,21.19
2023-08-02T21:28:51.163Z,21.00
2023-08-02T21:31:20.021Z,20.85
2023-08-02T21:33:47.888Z,21.04
2023-08-02T21:36:23.359Z,21.78
2023-08-02T21:38:53.367Z,22.38
2023-08-02T21:41:21.211Z,22.15
2023-08-02T21:43:50.260Z,21.70
2023-08-02T21:46:25.017Z,21.36
2023-08-02T21:48:55.536Z,21.11
2023-08-02T21:51:24.293Z,20.91
2023-08-02T21:53:53.348Z,20.75
2023-08-02T21:56:24.568Z,20.62
2023-08-02T21:59:01.288Z,21.04
2023-08-02T22:01:31.560Z,21.83
2023-08-02T22:03:59.970Z,22.04
2023-08-02T22:06:29.817Z,21.62
2023-08-02T22:08:59.700Z,21.25
2023-08-02T22:11:27.127Z,20.98
2023-08-02T22:13:55.386Z,21.25
2023-08-02T22:16:24.008Z,21.96
2023-08-02T22:18:51.638Z,22.44
2023-08-02T22:21:22.579Z,22.18
2023-08-02T22:23:50.321Z,21.68
2023-08-02T22:26:17.689Z,21.30
2023-08-02T22:28:46.650Z,21.01
2023-08-02T22:31:13.983Z,21.26
2023-08-02T22:33:41.145Z,21.97
2023-08-02T22:36:08.503Z,22.55
2023-08-02T22:41:23.319Z,22.47
2023-08-02T22:43:51.218Z,21.93
2023-08-02T22:46:18.552Z,21.52
2023-08-02T22:51:17.069Z,20.99
2023-08-02T22:53:44.915Z,21.40
2023-08-02T22:56:12.317Z,22.06
2023-08-02T22:58:40.219Z,22.60
2023-08-02T23:01:10.378Z,22.58
2023-08-02T23:03:43.288Z,22.02
2023-08-02T23:06:14.582Z,21.54
2023-08-02T23:08:42.453Z,21.19
2023-08-02T23:11:11.699Z,21.36
2023-08-02T23:13:46.788Z,22.01
2023-08-02T23:16:25.306Z,22.54
2023-08-02T23:19:00.232Z,22.78
2023-08-02T23:21:34.960Z,22.26
2023-08-02T23:24:03.862Z,21.71
2023-08-02T23:26:31.737Z,21.32
2023-08-02T23:29:01.983Z,21.59
2023-08-02T23:31:29.863Z,22.17
2023-08-02T23:33:59.843Z,22.65
2023-08-02T23:36:27.345Z,22.98
2023-08-02T23:38:54.677Z,22.75
2023-08-02T23:41:22.039Z,22.11
2023-08-02T23:43:49.384Z,21.58
2023-08-02T23:46:17.667Z,21.68
2023-08-02T23:48:45.400Z,22.22
2023-08-02T23:51:13.840Z,22.64
2023-08-02T23:53:41.171Z,22.97
2023-08-02T23:56:08.555Z,23.17
2023-08-02T23:58:35.985Z,22.68
